sensor_id;sensor_type;location;lat;lon;timestamp;temperature;humidity
8557;DHT22;4316;53.840;10.762;2023-01-30T00:00:35;4.70;99.90
8557;DHT22;4316;53.840;10.762;2023-01-30T00:03:01;4.70;99.90
8557;DHT22;4316;53.840;10.762;2023-01-30T00:05:26;4.70;99.90
8557;DHT22;4316;53.840;10.762;2023-01-30T00:07:52;4.70;99.90
8557;DHT22;4316;53.840;10.762;2023-01-30T00:10:18;4.80;99.90
8557;DHT22;4316;53.840;10.762;2023-01-30T00:12:43;4.70;99.90
8557;DHT22;4316;53.840;10.762;2023-01-30T00:15:09;4.70;99.90
8557;DHT22;4316;53.840;10.762;2023-01-30T00:17:35;4.70;99.90
8557;DHT22;4316;53.840;10.762;2023-01-30T00:20:00;4.70;99.90
8557;DHT22;4316;53.840;10.762;2023-01-30T00:22:26;4.70;99.90
8557;DHT22;4316;53.840;10.762;2023-01-30T00:24:52;4.70;99.90
8557;DHT22;4316;53.840;10.762;2023-01-30T00:27:17;4.80;99.90
8557;DHT22;4316;53.840;10.762;2023-01-30T00:29:43;4.70;99.90
8557;DHT22;4316;53.840;10.762;2023-01-30T00:32:08;4.70;99.90
8557;DHT22;4316;53.840;10.762;2023-01-30T00:34:39;4.70;99.90
8557;DHT22;4316;53.840;10.762;2023-01-30T00:37:06;4.70;99.90
8557;DHT22;4316;53.840;10.762;2023-01-30T00:39:32;4.70;99.90
8557;DHT22;4316;53.840;10.762;2023-01-30T00:41:59;4.80;99.90
8557;DHT22;4316;53.840;10.762;2023-01-30T00:44:44;4.70;99.90
8557;DHT22;4316;53.840;10.762;2023-01-30T00:47:28;4.70;99.90
8557;DHT22;4316;53.840;10.762;2023-01-30T00:49:53;4.70;99.90
8557;DHT22;4316;53.840;10.762;2023-01-30T00:52:19;4.70;99.90
8557;DHT22;4316;53.840;10.762;2023-01-30T00:54:45;4.70;99.90
8557;DHT22;4316;53.840;10.762;2023-01-30T00:57:10;4.80;99.90
8557;DHT22;4316;53.840;10.762;2023-01-30T00:59:36;4.70;99.90
8557;DHT22;4316;53.840;10.762;2023-01-30T01:02:01;4.70;99.90
8557;DHT22;4316;53.840;10.762;2023-01-30T01:04:27;4.70;99.90
8557;DHT22;4316;53.840;10.762;2023-01-30T01:06:53;4.80;99.90
8557;DHT22;4316;53.840;10.762;2023-01-30T01:09:18;4.70;99.90
8557;DHT22;4316;53.840;10.762;2023-01-30T01:11:44;4.80;99.90
8557;DHT22;4316;53.840;10.762;2023-01-30T01:14:10;4.70;99.90
8557;DHT22;4316;53.840;10.762;2023-01-30T01:16:35;4.70;99.90
8557;DHT22;4316;53.840;10.762;2023-01-30T01:19:01;4.80;99.90
8557;DHT22;4316;53.840;10.762;2023-01-30T01:21:27;4.80;99.90
8557;DHT22;4316;53.840;10.762;2023-01-30T01:23:55;4.80;99.90
8557;DHT22;4316;53.840;10.762;2023-01-30T01:26:21;4.80;99.90
8557;DHT22;4316;53.840;10.762;2023-01-30T01:28:47;4.90;99.90
8557;DHT22;4316;53.840;10.762;2023-01-30T01:31:14;4.80;99.90
8557;DHT22;4316;53.840;10.762;2023-01-30T01:33:40;4.80;99.90
8557;DHT22;4316;53.840;10.762;2023-01-30T01:36:06;4.90;99.90
8557;DHT22;4316;53.840;10.762;2023-01-30T01:38:32;4.90;99.90
8557;DHT22;4316;53.840;10.762;2023-01-30T01:40:58;4.90;99.90
8557;DHT22;4316;53.840;10.762;2023-01-30T01:43:32;4.90;99.90
8557;DHT22;4316;53.840;10.762;2023-01-30T01:46:01;4.90;99.90
8557;DHT22;4316;53.840;10.762;2023-01-30T01:48:34;4.90;99.90
8557;DHT22;4316;53.840;10.762;2023-01-30T01:51:04;4.90;99.90
8557;DHT22;4316;53.840;10.762;2023-01-30T01:53:37;4.90;99.90
8557;DHT22;4316;53.840;10.762;2023-01-30T01:56:05;4.90;99.90
8557;DHT22;4316;53.840;10.762;2023-01-30T01:58:36;4.90;99.90
8557;DHT22;4316;53.840;10.762;2023-01-30T02:01:03;5.00;99.90
8557;DHT22;4316;53.840;10.762;2023-01-30T02:03:34;5.00;99.90
8557;DHT22;4316;53.840;10.762;2023-01-30T02:06:02;5.00;99.90
8557;DHT22;4316;53.840;10.762;2023-01-30T02:08:33;5.00;99.90
8557;DHT22;4316;53.840;10.762;2023-01-30T02:11:08;5.10;99.90
8557;DHT22;4316;53.840;10.762;2023-01-30T02:13:36;5.00;99.90
8557;DHT22;4316;53.840;10.762;2023-01-30T02:16:05;5.10;99.90
8557;DHT22;4316;53.840;10.762;2023-01-30T02:18:33;5.00;99.90
8557;DHT22;4316;53.840;10.762;2023-01-30T02:35:37;5.20;99.90
8557;DHT22;4316;53.840;10.762;2023-01-30T02:46:52;5.20;99.90
8557;DHT22;4316;53.840;10.762;2023-01-30T02:49:25;5.20;99.90
8557;DHT22;4316;53.840;10.762;2023-01-30T02:51:57;5.20;99.90
8557;DHT22;4316;53.840;10.762;2023-01-30T02:54:24;5.30;99.90
8557;DHT22;4316;53.840;10.762;2023-01-30T02:56:53;5.30;99.90
8557;DHT22;4316;53.840;10.762;2023-01-30T02:59:31;5.30;99.90
8557;DHT22;4316;53.840;10.762;2023-01-30T03:04:56;5.40;99.90
8557;DHT22;4316;53.840;10.762;2023-01-30T03:07:43;5.40;99.90
8557;DHT22;4316;53.840;10.762;2023-01-30T03:10:35;5.40;99.90
8557;DHT22;4316;53.840;10.762;2023-01-30T03:13:33;5.50;99.90
8557;DHT22;4316;53.840;10.762;2023-01-30T03:16:20;5.40;99.90
8557;DHT22;4316;53.840;10.762;2023-01-30T03:18:47;5.50;99.90
8557;DHT22;4316;53.840;10.762;2023-01-30T03:21:15;5.50;99.90
8557;DHT22;4316;53.840;10.762;2023-01-30T03:23:40;5.50;99.90
8557;DHT22;4316;53.840;10.762;2023-01-30T03:26:16;5.60;99.90
8557;DHT22;4316;53.840;10.762;2023-01-30T03:28:44;5.50;99.90
8557;DHT22;4316;53.840;10.762;2023-01-30T03:31:10;5.60;99.90
8557;DHT22;4316;53.840;10.762;2023-01-30T03:33:36;5.60;99.90
8557;DHT22;4316;53.840;10.762;2023-01-30T03:36:02;5.60;99.90
8557;DHT22;4316;53.840;10.762;2023-01-30T03:38:27;5.60;99.90
8557;DHT22;4316;53.840;10.762;2023-01-30T03:40:53;5.70;99.90
8557;DHT22;4316;53.840;10.762;2023-01-30T03:43:19;5.70;99.90
8557;DHT22;4316;53.840;10.762;2023-01-30T03:45:45;5.70;99.90
8557;DHT22;4316;53.840;10.762;2023-01-30T03:48:10;5.80;99.90
8557;DHT22;4316;53.840;10.762;2023-01-30T03:50:37;5.80;99.90
8557;DHT22;4316;53.840;10.762;2023-01-30T03:53:02;5.80;99.90
8557;DHT22;4316;53.840;10.762;2023-01-30T03:55:28;5.80;99.90
8557;DHT22;4316;53.840;10.762;2023-01-30T03:57:58;5.90;99.90
8557;DHT22;4316;53.840;10.762;2023-01-30T04:00:26;5.90;99.90
8557;DHT22;4316;53.840;10.762;2023-01-30T04:02:52;5.90;99.90
8557;DHT22;4316;53.840;10.762;2023-01-30T04:05:19;5.90;99.90
8557;DHT22;4316;53.840;10.762;2023-01-30T04:07:50;5.90;99.90
8557;DHT22;4316;53.840;10.762;2023-01-30T04:10:16;6.00;99.90
8557;DHT22;4316;53.840;10.762;2023-01-30T04:12:45;5.90;99.90
8557;DHT22;4316;53.840;10.762;2023-01-30T04:15:11;6.00;99.90
8557;DHT22;4316;53.840;10.762;2023-01-30T04:17:47;6.00;99.90
8557;DHT22;4316;53.840;10.762;2023-01-30T04:20:31;6.00;99.90
8557;DHT22;4316;53.840;10.762;2023-01-30T04:22:57;6.10;99.90
8557;DHT22;4316;53.840;10.762;2023-01-30T04:25:24;5.90;99.90
8557;DHT22;4316;53.840;10.762;2023-01-30T04:27:51;6.00;99.90
8557;DHT22;4316;53.840;10.762;2023-01-30T04:30:20;6.00;99.90
8557;DHT22;4316;53.840;10.762;2023-01-30T04:32:48;6.00;99.90
8557;DHT22;4316;53.840;10.762;2023-01-30T04:35:13;6.00;99.90
8557;DHT22;4316;53.840;10.762;2023-01-30T04:37:39;6.00;99.90
8557;DHT22;4316;53.840;10.762;2023-01-30T04:40:07;6.00;99.90
8557;DHT22;4316;53.840;10.762;2023-01-30T04:42:34;6.00;99.90
8557;DHT22;4316;53.840;10.762;2023-01-30T04:45:18;6.00;99.90
8557;DHT22;4316;53.840;10.762;2023-01-30T04:47:44;6.00;99.90
8557;DHT22;4316;53.840;10.762;2023-01-30T04:50:10;6.00;99.90
8557;DHT22;4316;53.840;10.762;2023-01-30T04:52:36;6.00;99.90
8557;DHT22;4316;53.840;10.762;2023-01-30T04:55:02;6.00;99.90
8557;DHT22;4316;53.840;10.762;2023-01-30T04:57:27;6.00;99.90
8557;DHT22;4316;53.840;10.762;2023-01-30T04:59:53;5.90;99.90
8557;DHT22;4316;53.840;10.762;2023-01-30T05:02:19;5.90;99.90
8557;DHT22;4316;53.840;10.762;2023-01-30T05:04:45;5.90;99.90
8557;DHT22;4316;53.840;10.762;2023-01-30T05:07:12;5.90;99.90
8557;DHT22;4316;53.840;10.762;2023-01-30T05:09:38;5.90;99.90
8557;DHT22;4316;53.840;10.762;2023-01-30T05:12:04;5.90;99.90
8557;DHT22;4316;53.840;10.762;2023-01-30T05:14:29;5.80;99.90
8557;DHT22;4316;53.840;10.762;2023-01-30T05:16:55;5.80;99.90
8557;DHT22;4316;53.840;10.762;2023-01-30T05:19:20;5.70;99.90
8557;DHT22;4316;53.840;10.762;2023-01-30T05:21:46;5.70;99.90
8557;DHT22;4316;53.840;10.762;2023-01-30T05:24:11;5.60;99.90
8557;DHT22;4316;53.840;10.762;2023-01-30T05:26:37;5.50;99.90
8557;DHT22;4316;53.840;10.762;2023-01-30T05:29:02;5.50;99.90
8557;DHT22;4316;53.840;10.762;2023-01-30T05:31:28;5.50;99.90
8557;DHT22;4316;53.840;10.762;2023-01-30T05:33:54;5.40;99.90
8557;DHT22;4316;53.840;10.762;2023-01-30T05:36:21;5.40;99.90
8557;DHT22;4316;53.840;10.762;2023-01-30T05:38:47;5.40;99.90
8557;DHT22;4316;53.840;10.762;2023-01-30T05:41:14;5.30;99.90
8557;DHT22;4316;53.840;10.762;2023-01-30T05:43:40;5.30;99.90
8557;DHT22;4316;53.840;10.762;2023-01-30T05:46:08;5.30;99.90
8557;DHT22;4316;53.840;10.762;2023-01-30T05:48:34;5.30;99.90
8557;DHT22;4316;53.840;10.762;2023-01-30T05:50:59;5.30;99.90
8557;DHT22;4316;53.840;10.762;2023-01-30T05:53:31;5.30;99.90
8557;DHT22;4316;53.840;10.762;2023-01-30T05:56:01;5.30;99.90
8557;DHT22;4316;53.840;10.762;2023-01-30T05:58:27;5.30;99.90
8557;DHT22;4316;53.840;10.762;2023-01-30T06:00:53;5.30;99.90
8557;DHT22;4316;53.840;10.762;2023-01-30T06:03:19;5.30;99.90
8557;DHT22;4316;53.840;10.762;2023-01-30T06:05:44;5.30;99.90
8557;DHT22;4316;53.840;10.762;2023-01-30T06:08:10;5.30;99.90
8557;DHT22;4316;53.840;10.762;2023-01-30T06:10:36;5.30;99.90
8557;DHT22;4316;53.840;10.762;2023-01-30T06:13:02;5.30;99.90
8557;DHT22;4316;53.840;10.762;2023-01-30T06:15:28;5.30;99.90
8557;DHT22;4316;53.840;10.762;2023-01-30T06:17:53;5.40;99.90
8557;DHT22;4316;53.840;10.762;2023-01-30T06:20:19;5.40;99.90
8557;DHT22;4316;53.840;10.762;2023-01-30T06:22:45;5.40;99.90
8557;DHT22;4316;53.840;10.762;2023-01-30T06:25:11;5.40;99.90
8557;DHT22;4316;53.840;10.762;2023-01-30T06:27:37;5.40;99.90
8557;DHT22;4316;53.840;10.762;2023-01-30T06:30:03;5.30;99.90
8557;DHT22;4316;53.840;10.762;2023-01-30T06:32:29;5.40;99.90
8557;DHT22;4316;53.840;10.762;2023-01-30T06:34:54;5.40;99.90
8557;DHT22;4316;53.840;10.762;2023-01-30T06:37:20;5.40;99.90
8557;DHT22;4316;53.840;10.762;2023-01-30T06:39:45;5.40;99.90
8557;DHT22;4316;53.840;10.762;2023-01-30T06:42:11;5.40;99.90
8557;DHT22;4316;53.840;10.762;2023-01-30T06:44:36;5.40;99.90
8557;DHT22;4316;53.840;10.762;2023-01-30T06:47:02;5.40;99.90
8557;DHT22;4316;53.840;10.762;2023-01-30T06:49:27;5.40;99.90
8557;DHT22;4316;53.840;10.762;2023-01-30T06:51:53;5.30;99.90
8557;DHT22;4316;53.840;10.762;2023-01-30T06:54:18;5.30;99.90
8557;DHT22;4316;53.840;10.762;2023-01-30T06:56:44;5.40;99.90
8557;DHT22;4316;53.840;10.762;2023-01-30T06:59:10;5.30;99.90
8557;DHT22;4316;53.840;10.762;2023-01-30T07:01:35;5.40;99.90
8557;DHT22;4316;53.840;10.762;2023-01-30T07:04:02;5.30;99.90
8557;DHT22;4316;53.840;10.762;2023-01-30T07:06:27;5.30;99.90
8557;DHT22;4316;53.840;10.762;2023-01-30T07:08:53;5.30;99.90
8557;DHT22;4316;53.840;10.762;2023-01-30T07:11:20;5.30;99.90
8557;DHT22;4316;53.840;10.762;2023-01-30T07:13:46;5.30;99.90
8557;DHT22;4316;53.840;10.762;2023-01-30T07:16:11;5.30;99.90
8557;DHT22;4316;53.840;10.762;2023-01-30T07:18:37;5.30;99.90
8557;DHT22;4316;53.840;10.762;2023-01-30T07:21:03;5.40;99.90
8557;DHT22;4316;53.840;10.762;2023-01-30T07:23:28;5.30;99.90
8557;DHT22;4316;53.840;10.762;2023-01-30T07:25:54;5.40;99.90
8557;DHT22;4316;53.840;10.762;2023-01-30T07:28:19;5.30;99.90
8557;DHT22;4316;53.840;10.762;2023-01-30T07:30:45;5.30;99.90
8557;DHT22;4316;53.840;10.762;2023-01-30T07:33:11;5.40;99.90
8557;DHT22;4316;53.840;10.762;2023-01-30T07:35:37;5.30;99.90
8557;DHT22;4316;53.840;10.762;2023-01-30T07:38:03;5.40;99.90
8557;DHT22;4316;53.840;10.762;2023-01-30T07:40:29;5.40;99.90
8557;DHT22;4316;53.840;10.762;2023-01-30T07:43:03;5.40;99.90
8557;DHT22;4316;53.840;10.762;2023-01-30T07:45:34;5.40;99.90
8557;DHT22;4316;53.840;10.762;2023-01-30T07:48:00;5.50;99.90
8557;DHT22;4316;53.840;10.762;2023-01-30T07:50:25;5.50;99.90
8557;DHT22;4316;53.840;10.762;2023-01-30T07:52:51;5.50;99.90
8557;DHT22;4316;53.840;10.762;2023-01-30T07:55:16;5.50;99.90
8557;DHT22;4316;53.840;10.762;2023-01-30T07:57:42;5.50;99.90
8557;DHT22;4316;53.840;10.762;2023-01-30T08:00:09;5.70;99.90
8557;DHT22;4316;53.840;10.762;2023-01-30T08:02:35;5.50;99.90
8557;DHT22;4316;53.840;10.762;2023-01-30T08:05:01;5.50;99.90
8557;DHT22;4316;53.840;10.762;2023-01-30T08:07:27;5.50;99.90
8557;DHT22;4316;53.840;10.762;2023-01-30T08:09:52;5.50;99.90
8557;DHT22;4316;53.840;10.762;2023-01-30T08:12:18;5.40;99.90
8557;DHT22;4316;53.840;10.762;2023-01-30T08:14:43;5.50;99.90
8557;DHT22;4316;53.840;10.762;2023-01-30T08:17:09;5.40;99.90
8557;DHT22;4316;53.840;10.762;2023-01-30T08:19:34;5.40;99.90
8557;DHT22;4316;53.840;10.762;2023-01-30T08:22:00;5.50;99.90
8557;DHT22;4316;53.840;10.762;2023-01-30T08:24:26;5.50;99.90
8557;DHT22;4316;53.840;10.762;2023-01-30T08:26:51;5.60;99.90
8557;DHT22;4316;53.840;10.762;2023-01-30T08:29:17;5.60;99.90
8557;DHT22;4316;53.840;10.762;2023-01-30T08:31:42;5.60;99.90
8557;DHT22;4316;53.840;10.762;2023-01-30T08:34:08;5.60;99.90
8557;DHT22;4316;53.840;10.762;2023-01-30T08:36:33;5.70;99.90
8557;DHT22;4316;53.840;10.762;2023-01-30T08:38:59;5.70;99.90
8557;DHT22;4316;53.840;10.762;2023-01-30T08:41:24;6.10;99.90
8557;DHT22;4316;53.840;10.762;2023-01-30T08:43:51;6.30;99.90
8557;DHT22;4316;53.840;10.762;2023-01-30T08:46:17;6.30;99.90
8557;DHT22;4316;53.840;10.762;2023-01-30T08:48:45;6.20;99.90
8557;DHT22;4316;53.840;10.762;2023-01-30T08:51:10;6.30;99.90
8557;DHT22;4316;53.840;10.762;2023-01-30T08:53:36;6.50;99.90
8557;DHT22;4316;53.840;10.762;2023-01-30T08:56:02;6.60;99.90
8557;DHT22;4316;53.840;10.762;2023-01-30T08:58:27;6.50;99.90
8557;DHT22;4316;53.840;10.762;2023-01-30T09:00:53;6.60;99.90
8557;DHT22;4316;53.840;10.762;2023-01-30T09:03:18;7.10;99.90
8557;DHT22;4316;53.840;10.762;2023-01-30T09:05:44;7.50;99.90
8557;DHT22;4316;53.840;10.762;2023-01-30T09:08:10;7.20;99.90
8557;DHT22;4316;53.840;10.762;2023-01-30T09:10:36;6.80;99.90
8557;DHT22;4316;53.840;10.762;2023-01-30T09:13:02;6.60;99.90
8557;DHT22;4316;53.840;10.762;2023-01-30T09:15:30;6.50;99.90
8557;DHT22;4316;53.840;10.762;2023-01-30T09:17:56;6.50;99.90
8557;DHT22;4316;53.840;10.762;2023-01-30T09:20:21;6.40;99.90
8557;DHT22;4316;53.840;10.762;2023-01-30T09:22:47;6.50;99.90
8557;DHT22;4316;53.840;10.762;2023-01-30T09:25:13;6.50;99.90
8557;DHT22;4316;53.840;10.762;2023-01-30T09:27:39;6.40;99.90
8557;DHT22;4316;53.840;10.762;2023-01-30T09:30:10;6.30;99.90
8557;DHT22;4316;53.840;10.762;2023-01-30T09:32:36;6.30;99.90
8557;DHT22;4316;53.840;10.762;2023-01-30T09:35:03;6.30;99.90
8557;DHT22;4316;53.840;10.762;2023-01-30T09:37:28;6.30;99.90
8557;DHT22;4316;53.840;10.762;2023-01-30T09:39:54;6.20;99.90
8557;DHT22;4316;53.840;10.762;2023-01-30T09:42:40;6.20;99.90
8557;DHT22;4316;53.840;10.762;2023-01-30T09:50:52;6.20;99.90
8557;DHT22;4316;53.840;10.762;2023-01-30T09:56:09;6.30;99.90
8557;DHT22;4316;53.840;10.762;2023-01-30T09:58:54;6.50;99.90
8557;DHT22;4316;53.840;10.762;2023-01-30T10:01:47;6.60;99.90
8557;DHT22;4316;53.840;10.762;2023-01-30T10:04:37;6.60;99.90
8557;DHT22;4316;53.840;10.762;2023-01-30T10:07:16;6.70;99.90
8557;DHT22;4316;53.840;10.762;2023-01-30T10:13:07;6.50;99.90
8557;DHT22;4316;53.840;10.762;2023-01-30T10:15:47;6.30;99.90
8557;DHT22;4316;53.840;10.762;2023-01-30T10:18:35;5.90;99.90
8557;DHT22;4316;53.840;10.762;2023-01-30T10:21:16;5.70;99.90
8557;DHT22;4316;53.840;10.762;2023-01-30T10:24:16;5.60;99.90
8557;DHT22;4316;53.840;10.762;2023-01-30T10:26:43;5.60;99.90
8557;DHT22;4316;53.840;10.762;2023-01-30T10:29:32;5.60;99.90
8557;DHT22;4316;53.840;10.762;2023-01-30T10:32:11;5.60;99.90
8557;DHT22;4316;53.840;10.762;2023-01-30T10:34:42;5.70;99.90
8557;DHT22;4316;53.840;10.762;2023-01-30T10:37:28;5.70;99.90
8557;DHT22;4316;53.840;10.762;2023-01-30T10:40:21;5.40;99.90
8557;DHT22;4316;53.840;10.762;2023-01-30T10:43:19;5.20;99.90
8557;DHT22;4316;53.840;10.762;2023-01-30T10:49:04;4.90;99.90
8557;DHT22;4316;53.840;10.762;2023-01-30T10:54:42;4.80;99.90
8557;DHT22;4316;53.840;10.762;2023-01-30T11:00:01;4.70;99.90
8557;DHT22;4316;53.840;10.762;2023-01-30T11:05:20;4.70;99.90
8557;DHT22;4316;53.840;10.762;2023-01-30T11:07:47;4.70;99.90
8557;DHT22;4316;53.840;10.762;2023-01-30T11:10:23;4.80;99.90
8557;DHT22;4316;53.840;10.762;2023-01-30T11:12:59;4.70;99.90
8557;DHT22;4316;53.840;10.762;2023-01-30T11:15:40;4.70;99.90
8557;DHT22;4316;53.840;10.762;2023-01-30T11:18:07;4.60;99.90
8557;DHT22;4316;53.840;10.762;2023-01-30T11:20:39;4.60;99.90
8557;DHT22;4316;53.840;10.762;2023-01-30T11:25:50;4.50;99.90
8557;DHT22;4316;53.840;10.762;2023-01-30T11:28:15;4.50;99.90
8557;DHT22;4316;53.840;10.762;2023-01-30T11:30:43;4.60;99.90
8557;DHT22;4316;53.840;10.762;2023-01-30T11:33:17;4.50;99.90
8557;DHT22;4316;53.840;10.762;2023-01-30T11:35:54;4.50;99.90
8557;DHT22;4316;53.840;10.762;2023-01-30T11:38:29;4.60;99.90
8557;DHT22;4316;53.840;10.762;2023-01-30T11:41:05;4.60;99.90
8557;DHT22;4316;53.840;10.762;2023-01-30T11:43:33;4.60;99.90
8557;DHT22;4316;53.840;10.762;2023-01-30T11:45:59;4.60;99.90
8557;DHT22;4316;53.840;10.762;2023-01-30T11:48:27;4.70;99.90
8557;DHT22;4316;53.840;10.762;2023-01-30T11:50:58;4.70;99.90
8557;DHT22;4316;53.840;10.762;2023-01-30T11:53:46;4.70;99.90
8557;DHT22;4316;53.840;10.762;2023-01-30T11:56:40;4.80;99.90
8557;DHT22;4316;53.840;10.762;2023-01-30T12:02:30;4.90;99.90
8557;DHT22;4316;53.840;10.762;2023-01-30T12:05:02;5.00;99.90
8557;DHT22;4316;53.840;10.762;2023-01-30T12:07:36;5.20;99.90
8557;DHT22;4316;53.840;10.762;2023-01-30T12:10:24;5.30;99.90
8557;DHT22;4316;53.840;10.762;2023-01-30T12:12:52;5.50;99.90
8557;DHT22;4316;53.840;10.762;2023-01-30T12:15:30;5.60;99.90
8557;DHT22;4316;53.840;10.762;2023-01-30T12:21:02;5.50;99.90
8557;DHT22;4316;53.840;10.762;2023-01-30T12:23:57;5.40;99.90
8557;DHT22;4316;53.840;10.762;2023-01-30T12:26:29;5.40;99.90
8557;DHT22;4316;53.840;10.762;2023-01-30T12:31:48;5.60;99.90
8557;DHT22;4316;53.840;10.762;2023-01-30T12:34:14;5.70;99.90
8557;DHT22;4316;53.840;10.762;2023-01-30T12:36:44;5.80;99.90
8557;DHT22;4316;53.840;10.762;2023-01-30T12:45:24;6.20;99.90
8557;DHT22;4316;53.840;10.762;2023-01-30T12:51:00;6.10;99.90
8557;DHT22;4316;53.840;10.762;2023-01-30T12:53:47;6.10;99.90
8557;DHT22;4316;53.840;10.762;2023-01-30T12:59:13;6.00;99.90
8557;DHT22;4316;53.840;10.762;2023-01-30T13:07:39;6.10;99.90
8557;DHT22;4316;53.840;10.762;2023-01-30T13:10:08;6.20;99.90
8557;DHT22;4316;53.840;10.762;2023-01-30T13:12:48;6.30;99.90
8557;DHT22;4316;53.840;10.762;2023-01-30T13:23:58;6.50;99.90
8557;DHT22;4316;53.840;10.762;2023-01-30T13:26:28;6.40;99.90
8557;DHT22;4316;53.840;10.762;2023-01-30T13:28:59;6.40;99.90
8557;DHT22;4316;53.840;10.762;2023-01-30T13:31:31;6.50;99.90
8557;DHT22;4316;53.840;10.762;2023-01-30T13:34:14;6.50;99.90
8557;DHT22;4316;53.840;10.762;2023-01-30T13:36:51;6.50;99.90
8557;DHT22;4316;53.840;10.762;2023-01-30T13:42:09;6.40;99.90
8557;DHT22;4316;53.840;10.762;2023-01-30T13:44:41;6.40;99.90
8557;DHT22;4316;53.840;10.762;2023-01-30T13:50:18;6.30;99.90
8557;DHT22;4316;53.840;10.762;2023-01-30T13:55:48;6.40;99.90
8557;DHT22;4316;53.840;10.762;2023-01-30T13:58:44;6.40;99.90
8557;DHT22;4316;53.840;10.762;2023-01-30T14:01:12;6.30;99.90
8557;DHT22;4316;53.840;10.762;2023-01-30T14:03:39;6.20;99.90
8557;DHT22;4316;53.840;10.762;2023-01-30T14:06:09;6.10;99.90
8557;DHT22;4316;53.840;10.762;2023-01-30T14:08:47;6.00;99.90
8557;DHT22;4316;53.840;10.762;2023-01-30T14:11:29;6.10;99.90
8557;DHT22;4316;53.840;10.762;2023-01-30T14:16:41;6.00;99.90
8557;DHT22;4316;53.840;10.762;2023-01-30T14:21:56;6.00;99.90
8557;DHT22;4316;53.840;10.762;2023-01-30T14:24:23;5.90;99.90
8557;DHT22;4316;53.840;10.762;2023-01-30T14:40:48;6.10;99.90
8557;DHT22;4316;53.840;10.762;2023-01-30T14:48:37;6.10;99.90
8557;DHT22;4316;53.840;10.762;2023-01-30T14:53:55;6.00;99.90
8557;DHT22;4316;53.840;10.762;2023-01-30T15:04:57;6.00;99.90
8557;DHT22;4316;53.840;10.762;2023-01-30T15:07:42;6.00;99.90
8557;DHT22;4316;53.840;10.762;2023-01-30T15:10:18;6.20;99.90
8557;DHT22;4316;53.840;10.762;2023-01-30T15:13:29;6.20;99.90
8557;DHT22;4316;53.840;10.762;2023-01-30T15:27:37;6.50;99.90
8557;DHT22;4316;53.840;10.762;2023-01-30T15:32:42;6.50;99.90
8557;DHT22;4316;53.840;10.762;2023-01-30T15:35:21;6.50;99.90
8557;DHT22;4316;53.840;10.762;2023-01-30T15:37:51;6.40;99.90
8557;DHT22;4316;53.840;10.762;2023-01-30T15:40:19;6.40;99.90
8557;DHT22;4316;53.840;10.762;2023-01-30T15:48:38;6.40;99.90
8557;DHT22;4316;53.840;10.762;2023-01-30T15:51:00;6.40;99.90
8557;DHT22;4316;53.840;10.762;2023-01-30T15:53:29;6.40;99.90
8557;DHT22;4316;53.840;10.762;2023-01-30T15:55:57;6.40;99.90
8557;DHT22;4316;53.840;10.762;2023-01-30T15:58:24;6.50;99.90
8557;DHT22;4316;53.840;10.762;2023-01-30T16:00:58;6.30;99.90
8557;DHT22;4316;53.840;10.762;2023-01-30T16:03:27;6.30;99.90
8557;DHT22;4316;53.840;10.762;2023-01-30T16:05:55;6.40;99.90
8557;DHT22;4316;53.840;10.762;2023-01-30T16:08:23;6.30;99.90
8557;DHT22;4316;53.840;10.762;2023-01-30T16:10:50;6.30;99.90
8557;DHT22;4316;53.840;10.762;2023-01-30T16:13:17;6.20;99.90
8557;DHT22;4316;53.840;10.762;2023-01-30T16:15:48;6.20;99.90
8557;DHT22;4316;53.840;10.762;2023-01-30T16:20:54;6.20;99.90
8557;DHT22;4316;53.840;10.762;2023-01-30T16:23:22;6.20;99.90
8557;DHT22;4316;53.840;10.762;2023-01-30T16:25:49;6.20;99.90
8557;DHT22;4316;53.840;10.762;2023-01-30T16:28:26;6.10;99.90
8557;DHT22;4316;53.840;10.762;2023-01-30T16:31:07;6.10;99.90
8557;DHT22;4316;53.840;10.762;2023-01-30T16:33:33;6.10;99.90
8557;DHT22;4316;53.840;10.762;2023-01-30T16:36:04;6.10;99.90
8557;DHT22;4316;53.840;10.762;2023-01-30T16:38:33;6.10;99.90
8557;DHT22;4316;53.840;10.762;2023-01-30T16:40:59;6.10;99.90
8557;DHT22;4316;53.840;10.762;2023-01-30T16:43:26;6.10;99.90
8557;DHT22;4316;53.840;10.762;2023-01-30T16:53:27;6.00;99.90
8557;DHT22;4316;53.840;10.762;2023-01-30T16:56:06;6.00;99.90
8557;DHT22;4316;53.840;10.762;2023-01-30T16:58:35;6.00;99.90
8557;DHT22;4316;53.840;10.762;2023-01-30T17:01:04;6.00;99.90
8557;DHT22;4316;53.840;10.762;2023-01-30T17:03:33;6.00;99.90
8557;DHT22;4316;53.840;10.762;2023-01-30T17:06:02;6.00;99.90
8557;DHT22;4316;53.840;10.762;2023-01-30T17:08:48;6.00;99.90
8557;DHT22;4316;53.840;10.762;2023-01-30T17:11:30;6.00;99.90
8557;DHT22;4316;53.840;10.762;2023-01-30T17:16:41;6.00;99.90
8557;DHT22;4316;53.840;10.762;2023-01-30T17:19:07;5.90;99.90
8557;DHT22;4316;53.840;10.762;2023-01-30T17:21:48;5.90;99.90
8557;DHT22;4316;53.840;10.762;2023-01-30T17:24:16;5.90;99.90
8557;DHT22;4316;53.840;10.762;2023-01-30T17:26:44;5.90;99.90
8557;DHT22;4316;53.840;10.762;2023-01-30T17:29:12;5.90;99.90
8557;DHT22;4316;53.840;10.762;2023-01-30T17:31:47;5.80;99.90
8557;DHT22;4316;53.840;10.762;2023-01-30T17:34:14;5.70;99.90
8557;DHT22;4316;53.840;10.762;2023-01-30T17:36:40;5.70;99.90
8557;DHT22;4316;53.840;10.762;2023-01-30T17:39:11;5.70;99.90
8557;DHT22;4316;53.840;10.762;2023-01-30T17:41:37;5.70;99.90
8557;DHT22;4316;53.840;10.762;2023-01-30T17:44:03;5.70;99.90
8557;DHT22;4316;53.840;10.762;2023-01-30T17:46:35;5.70;99.90
8557;DHT22;4316;53.840;10.762;2023-01-30T17:49:01;5.70;99.90
8557;DHT22;4316;53.840;10.762;2023-01-30T17:51:27;5.70;99.90
8557;DHT22;4316;53.840;10.762;2023-01-30T17:53:53;5.70;99.90
8557;DHT22;4316;53.840;10.762;2023-01-30T17:56:22;5.70;99.90
8557;DHT22;4316;53.840;10.762;2023-01-30T17:58:49;5.70;99.90
8557;DHT22;4316;53.840;10.762;2023-01-30T18:01:15;5.80;99.90
8557;DHT22;4316;53.840;10.762;2023-01-30T18:03:43;5.70;99.90
8557;DHT22;4316;53.840;10.762;2023-01-30T18:06:11;5.70;99.90
8557;DHT22;4316;53.840;10.762;2023-01-30T18:08:37;5.50;99.90
8557;DHT22;4316;53.840;10.762;2023-01-30T18:11:03;5.50;99.90
8557;DHT22;4316;53.840;10.762;2023-01-30T18:13:28;5.50;99.90
8557;DHT22;4316;53.840;10.762;2023-01-30T18:15:57;5.50;99.90
8557;DHT22;4316;53.840;10.762;2023-01-30T18:18:27;5.50;99.90
8557;DHT22;4316;53.840;10.762;2023-01-30T18:20:53;5.60;99.90
8557;DHT22;4316;53.840;10.762;2023-01-30T18:23:19;5.60;99.90
8557;DHT22;4316;53.840;10.762;2023-01-30T18:25:45;5.60;99.90
8557;DHT22;4316;53.840;10.762;2023-01-30T18:28:10;5.60;99.90
8557;DHT22;4316;53.840;10.762;2023-01-30T18:30:36;5.50;99.90
8557;DHT22;4316;53.840;10.762;2023-01-30T18:33:01;5.60;99.90
8557;DHT22;4316;53.840;10.762;2023-01-30T18:35:27;5.60;99.90
8557;DHT22;4316;53.840;10.762;2023-01-30T18:37:52;5.60;99.90
8557;DHT22;4316;53.840;10.762;2023-01-30T18:40:19;5.50;99.90
8557;DHT22;4316;53.840;10.762;2023-01-30T18:42:45;5.50;99.90
8557;DHT22;4316;53.840;10.762;2023-01-30T18:45:11;5.40;99.90
8557;DHT22;4316;53.840;10.762;2023-01-30T18:47:36;5.40;99.90
8557;DHT22;4316;53.840;10.762;2023-01-30T18:50:02;5.50;99.90
8557;DHT22;4316;53.840;10.762;2023-01-30T18:52:28;5.50;99.90
8557;DHT22;4316;53.840;10.762;2023-01-30T18:54:54;5.50;99.90
8557;DHT22;4316;53.840;10.762;2023-01-30T18:57:20;5.50;99.90
8557;DHT22;4316;53.840;10.762;2023-01-30T18:59:45;5.40;99.90
8557;DHT22;4316;53.840;10.762;2023-01-30T19:02:11;5.40;99.90